createdAt,value
2019-05-12T00:02:09.922Z,73.39
2019-05-12T00:04:40.040Z,73.52
2019-05-12T00:07:11.640Z,73.95
2019-05-12T00:09:44.963Z,73.70
2019-05-12T00:12:15.115Z,73.98
2019-05-12T00:14:48.397Z,73.87
2019-05-12T00:17:18.752Z,74.29
2019-05-12T00:19:49.147Z,74.17
2019-05-12T00:22:21.266Z,74.34
2019-05-12T00:24:51.377Z,74.52
2019-05-12T00:27:22.946Z,74.73
2019-05-12T00:29:53.976Z,74.70
2019-05-12T00:32:24.324Z,74.73
2019-05-12T00:34:54.429Z,75.31
2019-05-12T00:37:24.668Z,74.75
2019-05-12T00:39:54.873Z,75.51
2019-05-12T00:42:26.084Z,75.35
2019-05-12T00:44:58.434Z,75.65
2019-05-12T00:47:28.131Z,75.38
2019-05-12T00:49:58.426Z,75.57
2019-05-12T00:52:28.529Z,75.79
2019-05-12T00:54:58.718Z,75.71
2019-05-12T00:57:28.811Z,75.80
2019-05-12T00:59:58.945Z,75.92
2019-05-12T01:02:29.006Z,76.12
2019-05-12T01:04:59.199Z,76.08
2019-05-12T01:07:29.340Z,76.08
2019-05-12T01:10:01.381Z,75.96
2019-05-12T01:12:31.569Z,76.05
2019-05-12T01:15:01.694Z,76.00
2019-05-12T01:17:31.899Z,76.22
2019-05-12T01:20:02.061Z,76.08
2019-05-12T01:22:32.198Z,76.19
2019-05-12T01:25:02.323Z,76.43
2019-05-12T01:27:32.507Z,76.37
2019-05-12T01:30:02.707Z,76.31
2019-05-12T01:32:38.233Z,76.70
2019-05-12T01:35:09.353Z,77.14
2019-05-12T01:37:39.519Z,76.71
2019-05-12T01:40:12.099Z,76.81
2019-05-12T01:42:42.171Z,76.93
2019-05-12T01:45:12.443Z,77.15
2019-05-12T01:47:45.362Z,77.39
2019-05-12T01:50:14.479Z,77.44
2019-05-12T01:52:44.569Z,77.22
2019-05-12T01:55:14.687Z,77.24
2019-05-12T01:57:44.763Z,77.38
2019-05-12T02:00:18.301Z,77.73
2019-05-12T02:02:48.461Z,77.80
2019-05-12T02:05:22.553Z,78.06
2019-05-12T02:07:58.239Z,77.75
2019-05-12T02:10:28.704Z,77.76
2019-05-12T02:12:59.669Z,78.03
2019-05-12T02:15:29.858Z,78.00
2019-05-12T02:17:59.983Z,77.79
2019-05-12T02:20:30.091Z,78.33
2019-05-12T02:23:00.174Z,78.10
2019-05-12T02:25:30.345Z,77.97
2019-05-12T02:28:00.424Z,78.16
2019-05-12T02:30:31.331Z,78.33
2019-05-12T02:33:01.440Z,78.59
2019-05-12T02:35:35.186Z,78.41
2019-05-12T02:38:05.142Z,78.28
2019-05-12T02:40:35.652Z,78.49
2019-05-12T02:43:06.006Z,78.43
2019-05-12T02:45:36.387Z,78.30
2019-05-12T02:48:06.566Z,78.18
2019-05-12T02:50:38.072Z,78.34
2019-05-12T02:53:08.471Z,78.45
2019-05-12T02:55:39.435Z,78.71
2019-05-12T02:58:14.963Z,78.74
2019-05-12T03:00:45.709Z,78.46
2019-05-12T03:03:18.943Z,78.69
2019-05-12T03:05:50.809Z,78.86
2019-05-12T03:08:26.137Z,78.72
2019-05-12T03:10:55.876Z,78.78
2019-05-12T03:13:25.952Z,78.99
2019-05-12T03:15:56.144Z,79.35
2019-05-12T03:18:26.242Z,79.29
2019-05-12T03:20:56.436Z,78.97
2019-05-12T03:23:26.545Z,79.22
2019-05-12T03:25:56.759Z,79.20
2019-05-12T03:28:26.859Z,79.65
2019-05-12T03:30:58.256Z,79.78
2019-05-12T03:33:36.045Z,79.51
2019-05-12T03:36:01.625Z,79.40
2019-05-12T03:38:35.701Z,79.64
2019-05-12T03:41:05.314Z,79.91
2019-05-12T03:43:35.871Z,79.19
2019-05-12T03:46:06.050Z,79.29
2019-05-12T03:48:36.188Z,79.36
2019-05-12T03:51:06.276Z,79.81
2019-05-12T03:53:36.395Z,80.18
2019-05-12T03:56:06.496Z,80.04
2019-05-12T03:58:36.613Z,79.85
2019-05-12T04:01:06.928Z,79.98
2019-05-12T04:03:37.064Z,80.03
2019-05-12T04:06:07.161Z,80.24
2019-05-12T04:08:37.287Z,79.99
2019-05-12T04:11:07.396Z,79.66
2019-05-12T04:13:37.501Z,79.48
2019-05-12T04:16:08.974Z,79.75
2019-05-12T04:18:39.123Z,79.51
2019-05-12T04:21:09.271Z,79.41
2019-05-12T04:23:39.389Z,79.08
2019-05-12T04:26:13.366Z,79.01
2019-05-12T04:28:41.369Z,78.89
2019-05-12T04:31:11.450Z,78.91
2019-05-12T04:33:44.992Z,79.05
2019-05-12T04:36:15.454Z,78.92
2019-05-12T04:38:45.579Z,79.10
2019-05-12T04:41:20.013Z,78.77
2019-05-12T04:43:49.506Z,78.91
2019-05-12T04:46:19.632Z,78.99
2019-05-12T04:48:49.771Z,78.54
2019-05-12T04:51:19.906Z,78.70
2019-05-12T04:53:54.715Z,78.59
2019-05-12T04:56:26.635Z,78.50
2019-05-12T04:58:56.765Z,78.39
2019-05-12T05:01:26.874Z,78.14
2019-05-12T05:03:56.984Z,77.80
2019-05-12T05:06:27.115Z,77.90
2019-05-12T05:08:57.937Z,77.80
2019-05-12T05:11:27.999Z,77.93
2019-05-12T05:13:58.108Z,77.66
2019-05-12T05:16:30.640Z,77.27
2019-05-12T05:19:09.320Z,77.00
2019-05-12T05:21:54.193Z,77.10
2019-05-12T05:24:28.861Z,76.75
2019-05-12T05:26:58.918Z,75.31
2019-05-12T05:29:29.048Z,74.21
2019-05-12T05:31:59.723Z,73.53
2019-05-12T05:34:31.127Z,73.55
2019-05-12T05:37:08.160Z,73.93
2019-05-12T05:39:47.931Z,74.08
2019-05-12T05:42:13.523Z,73.91
2019-05-12T05:44:43.729Z,74.06
2019-05-12T05:47:19.889Z,74.42
2019-05-12T05:49:49.684Z,73.72
2019-05-12T05:52:26.577Z,74.14
2019-05-12T05:54:55.835Z,73.37
2019-05-12T05:57:29.743Z,73.30
2019-05-12T05:59:57.758Z,72.77
2019-05-12T06:02:39.641Z,72.51
2019-05-12T06:05:04.528Z,72.54
2019-05-12T06:07:44.320Z,72.97
2019-05-12T06:10:16.799Z,72.58
2019-05-12T06:12:50.807Z,71.95
2019-05-12T06:15:18.778Z,71.85
2019-05-12T06:17:48.871Z,71.67
2019-05-12T06:20:19.053Z,71.28
2019-05-12T06:22:57.626Z,71.13
2019-05-12T06:25:44.602Z,71.06
2019-05-12T06:28:01.285Z,71.24
2019-05-12T06:30:37.465Z,71.17
2019-05-12T06:33:06.986Z,70.81
2019-05-12T06:35:42.361Z,69.85
2019-05-12T06:38:14.494Z,69.87
2019-05-12T06:40:45.596Z,69.81
2019-05-12T06:43:15.865Z,69.27
2019-05-12T06:45:46.011Z,68.78
2019-05-12T06:48:19.224Z,68.17
2019-05-12T06:50:49.054Z,67.75
2019-05-12T06:53:25.480Z,67.46
2019-05-12T06:55:53.989Z,67.32
2019-05-12T06:58:29.794Z,66.91
2019-05-12T07:00:57.206Z,67.24
2019-05-12T07:03:30.824Z,66.88
2019-05-12T07:06:03.940Z,66.45
2019-05-12T07:08:43.853Z,67.01
2019-05-12T07:11:16.626Z,65.98
2019-05-12T07:14:01.353Z,65.85
2019-05-12T07:16:25.108Z,65.83
2019-05-12T07:18:54.228Z,65.15
2019-05-12T07:21:27.477Z,65.59
2019-05-12T07:24:00.419Z,64.68
2019-05-12T07:26:35.259Z,64.31
2019-05-12T07:29:05.444Z,63.62
2019-05-12T07:31:36.021Z,62.28
2019-05-12T07:34:07.842Z,60.11
2019-05-12T07:36:40.449Z,60.01
2019-05-12T07:39:10.827Z,60.71
2019-05-12T07:41:50.415Z,58.36
2019-05-12T07:44:15.011Z,57.09
2019-05-12T07:46:49.321Z,57.18
2019-05-12T07:49:22.618Z,57.21
2019-05-12T07:51:57.433Z,56.42
2019-05-12T07:54:34.119Z,55.81
2019-05-12T07:57:03.646Z,55.74
2019-05-12T07:59:39.569Z,55.71
2019-05-12T08:02:05.869Z,55.60
2019-05-12T08:04:39.738Z,55.24
2019-05-12T08:07:19.863Z,54.71
2019-05-12T08:09:50.167Z,54.57
2019-05-12T08:12:21.151Z,53.46
2019-05-12T08:14:54.089Z,53.73
2019-05-12T08:17:24.643Z,52.79
2019-05-12T08:19:57.185Z,51.92
2019-05-12T08:22:29.518Z,51.86
2019-05-12T08:24:59.816Z,52.35
2019-05-12T08:27:29.954Z,51.19
2019-05-12T08:30:02.995Z,49.90
2019-05-12T08:32:33.816Z,51.39
2019-05-12T08:35:06.685Z,51.76
2019-05-12T08:37:36.838Z,50.99
2019-05-12T08:40:09.733Z,50.41
2019-05-12T08:42:39.869Z,49.79
2019-05-12T08:45:15.257Z,50.24
2019-05-12T08:47:44.041Z,49.59
2019-05-12T08:50:13.888Z,50.57
2019-05-12T08:52:47.496Z,49.49
2019-05-12T08:55:25.163Z,49.66
2019-05-12T08:57:49.808Z,48.60
2019-05-12T09:00:39.740Z,47.87
2019-05-12T09:03:08.651Z,48.13
2019-05-12T09:05:39.268Z,47.79
2019-05-12T09:08:14.179Z,48.08
2019-05-12T09:10:45.185Z,48.48
2019-05-12T09:13:15.430Z,48.25
2019-05-12T09:15:45.547Z,48.58
2019-05-12T09:18:18.908Z,47.54
2019-05-12T09:20:52.776Z,46.63
2019-05-12T09:23:20.575Z,46.42
2019-05-12T09:25:53.774Z,45.98
2019-05-12T09:28:24.071Z,46.30
2019-05-12T09:30:54.978Z,45.22
2019-05-12T09:33:31.893Z,45.16
2019-05-12T09:35:59.648Z,45.63
2019-05-12T09:38:29.771Z,44.73
2019-05-12T09:41:01.171Z,45.85
2019-05-12T09:43:34.217Z,44.35
2019-05-12T09:46:04.177Z,45.23
2019-05-12T09:48:39.196Z,43.63
2019-05-12T09:51:09.178Z,42.08
2019-05-12T09:53:42.904Z,43.35
2019-05-12T09:56:14.297Z,43.22
2019-05-12T09:58:58.209Z,42.04
2019-05-12T10:01:16.890Z,40.81
2019-05-12T10:03:47.008Z,42.16
2019-05-12T10:06:21.091Z,42.06
2019-05-12T10:08:54.631Z,42.33
2019-05-12T10:11:25.754Z,42.06
2019-05-12T10:14:00.441Z,40.28
2019-05-12T10:16:33.254Z,40.64
2019-05-12T10:19:03.958Z,41.42
2019-05-12T10:21:36.380Z,40.34
2019-05-12T10:24:07.169Z,40.38
2019-05-12T10:26:41.304Z,38.53
2019-05-12T10:29:20.286Z,38.42
2019-05-12T10:31:50.095Z,38.97
2019-05-12T10:34:29.245Z,40.31
2019-05-12T10:37:04.222Z,40.58
2019-05-12T10:39:35.504Z,40.19
2019-05-12T10:42:05.792Z,40.25
2019-05-12T10:44:40.523Z,39.22
2019-05-12T10:47:10.575Z,38.49
2019-05-12T10:49:44.039Z,37.36
2019-05-12T10:52:15.044Z,37.17
2019-05-12T10:54:45.734Z,39.43
2019-05-12T10:57:17.064Z,39.83
2019-05-12T10:59:50.115Z,39.84
2019-05-12T11:02:25.732Z,39.35
2019-05-12T11:04:54.287Z,38.61
2019-05-12T11:07:28.088Z,38.56
2019-05-12T11:10:03.579Z,38.62
2019-05-12T11:12:34.583Z,36.96
2019-05-12T11:15:06.635Z,37.69
2019-05-12T11:17:54.656Z,38.76
2019-05-12T11:20:26.706Z,39.21
2019-05-12T11:23:03.293Z,39.68
2019-05-12T11:25:33.968Z,38.99
2019-05-12T11:28:04.572Z,38.41
2019-05-12T11:30:40.818Z,38.44
2019-05-12T11:33:11.189Z,37.11
2019-05-12T11:35:44.757Z,36.39
2019-05-12T11:38:15.344Z,36.42
2019-05-12T11:40:46.126Z,36.38
2019-05-12T11:43:18.186Z,36.63
2019-05-12T11:45:48.552Z,35.91
2019-05-12T11:48:18.673Z,35.47
2019-05-12T11:50:51.457Z,35.40
2019-05-12T11:53:31.230Z,36.87
2019-05-12T11:56:02.225Z,36.98
2019-05-12T11:58:30.613Z,36.65
2019-05-12T12:01:06.314Z,36.68
2019-05-12T12:03:34.313Z,36.87
2019-05-12T12:06:04.497Z,36.11
2019-05-12T12:08:37.416Z,35.68
2019-05-12T12:11:10.585Z,36.07
2019-05-12T12:13:41.119Z,37.03
2019-05-12T12:16:11.552Z,34.80
2019-05-12T12:18:46.675Z,35.56
2019-05-12T12:21:19.028Z,35.99
2019-05-12T12:23:53.418Z,37.61
2019-05-12T12:26:30.039Z,37.12
2019-05-12T12:28:57.758Z,37.07
2019-05-12T12:31:34.647Z,37.26
2019-05-12T12:34:01.491Z,37.85
2019-05-12T12:36:34.196Z,37.40
2019-05-12T12:39:07.165Z,36.28
2019-05-12T12:41:37.978Z,34.57
2019-05-12T12:44:09.830Z,35.41
2019-05-12T12:46:44.031Z,34.75
2019-05-12T12:49:16.498Z,34.54
2019-05-12T12:51:53.168Z,34.71
2019-05-12T12:54:23.754Z,35.60
2019-05-12T12:56:54.030Z,35.55
2019-05-12T12:59:27.183Z,35.22
2019-05-12T13:01:59.090Z,33.64
2019-05-12T13:04:29.349Z,33.24
2019-05-12T13:06:59.521Z,33.77
2019-05-12T13:09:29.803Z,34.04
2019-05-12T13:11:59.966Z,33.97
2019-05-12T13:14:36.499Z,32.92
2019-05-12T13:17:03.866Z,32.93
2019-05-12T13:19:33.856Z,32.24
2019-05-12T13:22:09.122Z,32.06
2019-05-12T13:24:40.563Z,32.92
2019-05-12T13:27:10.783Z,34.35
2019-05-12T13:29:41.524Z,34.28
2019-05-12T13:32:13.726Z,34.40
2019-05-12T13:34:44.198Z,33.61
2019-05-12T13:37:19.187Z,33.91
2019-05-12T13:39:55.306Z,34.04
2019-05-12T13:42:20.434Z,33.40
2019-05-12T13:44:53.125Z,33.58
2019-05-12T13:47:29.043Z,32.63
2019-05-12T13:49:57.029Z,32.41
2019-05-12T13:52:30.341Z,32.47
2019-05-12T13:55:00.207Z,31.81
2019-05-12T13:57:34.192Z,31.70
2019-05-12T14:00:10.606Z,32.06
2019-05-12T14:02:39.705Z,32.28
2019-05-12T14:05:14.181Z,32.42
2019-05-12T14:07:43.936Z,32.80
2019-05-12T14:10:14.358Z,32.14
2019-05-12T14:12:44.605Z,32.09
2019-05-12T14:15:15.017Z,31.79
2019-05-12T14:17:46.730Z,30.23
2019-05-12T14:20:20.271Z,30.28
2019-05-12T14:22:53.958Z,29.75
2019-05-12T14:25:29.864Z,29.42
2019-05-12T14:27:59.472Z,30.10
2019-05-12T14:30:28.515Z,30.35
2019-05-12T14:32:59.287Z,31.15
2019-05-12T14:35:41.178Z,31.13
2019-05-12T14:38:14.250Z,31.22
2019-05-12T14:40:48.065Z,30.68
2019-05-12T14:43:21.298Z,29.75
2019-05-12T14:45:50.073Z,29.90
2019-05-12T14:48:21.899Z,29.26
2019-05-12T14:50:53.801Z,29.38
2019-05-12T14:53:23.981Z,29.42
2019-05-12T14:55:54.123Z,29.02
2019-05-12T14:58:24.427Z,29.46
2019-05-12T15:00:56.389Z,29.61
2019-05-12T15:03:26.362Z,30.22
2019-05-12T15:05:56.581Z,31.18
2019-05-12T15:08:35.910Z,31.66
2019-05-12T15:10:59.872Z,31.79
2019-05-12T15:13:30.001Z,31.52
2019-05-12T15:16:00.310Z,31.83
2019-05-12T15:18:32.104Z,31.93
2019-05-12T15:21:04.752Z,31.77
2019-05-12T15:23:37.450Z,31.98
2019-05-12T15:26:09.635Z,31.25
2019-05-12T15:28:38.669Z,29.69
2019-05-12T15:31:08.846Z,28.87
2019-05-12T15:33:39.017Z,28.31
2019-05-12T15:36:09.212Z,27.99
2019-05-12T15:38:39.407Z,27.30
2019-05-12T15:41:20.107Z,27.49
2019-05-12T15:43:49.375Z,27.08
2019-05-12T15:46:24.554Z,26.32
2019-05-12T15:48:54.692Z,26.51
2019-05-12T15:51:29.525Z,26.51
2019-05-12T15:54:09.709Z,26.78
2019-05-12T15:56:31.846Z,28.57
2019-05-12T15:59:02.668Z,28.90
2019-05-12T16:01:33.593Z,29.25
2019-05-12T16:04:03.974Z,29.62
2019-05-12T16:06:45.104Z,27.99
2019-05-12T16:09:13.471Z,26.30
2019-05-12T16:11:45.307Z,26.34
2019-05-12T16:14:15.503Z,26.46
2019-05-12T16:16:47.149Z,27.24
2019-05-12T16:19:19.202Z,27.23
2019-05-12T16:21:49.601Z,26.72
2019-05-12T16:24:19.741Z,26.40
2019-05-12T16:26:51.916Z,26.28
2019-05-12T16:29:23.311Z,25.96
2019-05-12T16:31:54.497Z,25.70
2019-05-12T16:34:24.771Z,26.02
2019-05-12T16:36:56.168Z,26.46
2019-05-12T16:43:18.438Z,25.88
2019-05-12T16:45:50.132Z,26.02
2019-05-12T16:48:30.429Z,25.08
2019-05-12T16:50:53.613Z,25.45
2019-05-12T16:53:27.788Z,24.92
2019-05-12T16:55:55.733Z,25.07
2019-05-12T16:58:33.327Z,25.78
2019-05-12T17:00:57.852Z,25.90
2019-05-12T17:03:30.436Z,25.73
2019-05-12T17:06:00.569Z,25.31
2019-05-12T17:08:30.930Z,25.48
2019-05-12T17:11:21.537Z,25.95
2019-05-12T17:13:34.012Z,26.07
2019-05-12T17:16:04.521Z,26.21
2019-05-12T17:18:37.606Z,25.72
2019-05-12T17:21:07.753Z,25.39
2019-05-12T17:23:37.988Z,25.19
2019-05-12T17:26:08.236Z,25.62
2019-05-12T17:28:38.358Z,26.25
2019-05-12T17:31:08.654Z,26.76
2019-05-12T17:33:39.410Z,26.68
2019-05-12T17:36:12.412Z,26.51
2019-05-12T17:38:44.711Z,27.42
2019-05-12T17:41:18.105Z,29.15
2019-05-12T17:43:56.911Z,30.35
2019-05-12T17:46:23.444Z,31.46
2019-05-12T17:48:55.258Z,32.06
2019-05-12T17:51:30.842Z,32.66
2019-05-12T17:53:59.596Z,33.37
2019-05-12T17:56:34.123Z,33.79
2019-05-12T17:59:04.971Z,34.45
2019-05-12T18:01:44.662Z,34.53
2019-05-12T18:04:20.375Z,35.21
2019-05-12T18:06:47.830Z,36.06
2019-05-12T18:09:20.130Z,36.45
2019-05-12T18:11:54.261Z,36.60
2019-05-12T18:14:27.285Z,36.99
2019-05-12T18:17:02.662Z,37.23
2019-05-12T18:19:26.299Z,37.04
2019-05-12T18:22:03.224Z,37.40
2019-05-12T18:24:28.446Z,37.36
2019-05-12T18:27:04.245Z,37.74
2019-05-12T18:29:30.435Z,37.87
2019-05-12T18:32:04.948Z,37.96
2019-05-12T18:34:36.026Z,38.40
2019-05-12T18:37:06.209Z,38.50
2019-05-12T18:39:37.007Z,38.72
2019-05-12T18:42:10.198Z,38.93
2019-05-12T18:44:40.320Z,39.34
2019-05-12T18:47:14.358Z,40.03
2019-05-12T18:49:47.934Z,40.06
2019-05-12T18:52:14.739Z,40.30
2019-05-12T18:54:52.097Z,40.57
2019-05-12T18:57:20.379Z,40.67
2019-05-12T18:59:55.057Z,41.06
2019-05-12T19:02:27.605Z,41.32
2019-05-12T19:04:54.311Z,41.39
2019-05-12T19:07:38.658Z,41.77
2019-05-12T19:10:00.207Z,42.02
2019-05-12T19:12:32.580Z,42.27
2019-05-12T19:15:04.406Z,42.50
2019-05-12T19:17:40.982Z,42.59
2019-05-12T19:20:13.262Z,42.81
2019-05-12T19:22:48.111Z,43.09
2019-05-12T19:25:19.486Z,43.41
2019-05-12T19:28:04.663Z,43.55
2019-05-12T19:30:25.229Z,43.58
2019-05-12T19:32:54.985Z,43.61
2019-05-12T19:35:25.242Z,44.02
2019-05-12T19:38:01.727Z,44.39
2019-05-12T19:40:30.544Z,44.65
2019-05-12T19:43:07.917Z,44.66
2019-05-12T19:45:33.878Z,44.91
2019-05-12T19:48:04.294Z,45.25
2019-05-12T19:50:34.598Z,45.57
2019-05-12T19:53:10.352Z,46.02
2019-05-12T19:55:39.854Z,46.38
2019-05-12T19:58:12.701Z,46.41
2019-05-12T20:00:43.959Z,47.03
2019-05-12T20:03:14.325Z,47.38
2019-05-12T20:05:44.566Z,47.55
2019-05-12T20:08:16.753Z,47.79
2019-05-12T20:10:49.383Z,48.31
2019-05-12T20:13:19.024Z,48.37
2019-05-12T20:15:49.157Z,48.56
2019-05-12T20:18:20.322Z,48.95
2019-05-12T20:20:50.668Z,49.33
2019-05-12T20:23:24.398Z,49.58
2019-05-12T20:25:54.175Z,49.74
2019-05-12T20:28:24.499Z,50.11
2019-05-12T20:31:01.073Z,50.11
2019-05-12T20:33:26.871Z,50.24
2019-05-12T20:35:57.029Z,50.39
2019-05-12T20:38:34.247Z,50.82
2019-05-12T20:40:59.316Z,51.21
2019-05-12T20:43:36.720Z,51.53
2019-05-12T20:46:03.616Z,51.80
2019-05-12T20:48:33.916Z,52.47
2019-05-12T20:51:08.683Z,52.90
2019-05-12T20:53:36.775Z,53.44
2019-05-12T20:56:12.108Z,53.70
2019-05-12T20:58:43.689Z,53.92
2019-05-12T21:01:13.932Z,53.94
2019-05-12T21:03:46.396Z,54.35
2019-05-12T21:06:18.402Z,54.81
2019-05-12T21:08:53.792Z,55.04
2019-05-12T21:11:19.457Z,55.50
2019-05-12T21:13:54.351Z,55.58
2019-05-12T21:16:31.166Z,56.17
2019-05-12T21:19:07.513Z,56.28
2019-05-12T21:21:36.928Z,56.67
2019-05-12T21:24:05.244Z,57.17
2019-05-12T21:26:37.944Z,57.27
2019-05-12T21:29:08.281Z,57.43
2019-05-12T21:31:38.590Z,57.74
2019-05-12T21:34:13.148Z,57.80
2019-05-12T21:36:44.379Z,58.18
2019-05-12T21:39:15.835Z,58.44
2019-05-12T21:41:50.721Z,58.86
2019-05-12T21:44:17.969Z,58.77
2019-05-12T21:47:00.994Z,58.97
2019-05-12T21:49:19.979Z,59.62
2019-05-12T21:51:50.524Z,60.12
2019-05-12T21:54:24.010Z,60.33
2019-05-12T21:56:56.345Z,60.92
2019-05-12T21:59:29.006Z,61.36
2019-05-12T22:01:58.631Z,61.73
2019-05-12T22:04:32.925Z,61.85
2019-05-12T22:07:00.727Z,62.17
2019-05-12T22:09:32.893Z,62.11
2019-05-12T22:12:03.907Z,62.45
2019-05-12T22:14:36.561Z,62.54
2019-05-12T22:17:14.607Z,62.69
2019-05-12T22:19:44.719Z,63.31
2019-05-12T22:22:19.543Z,63.43
2019-05-12T22:24:47.775Z,63.67
2019-05-12T22:27:22.888Z,63.60
2019-05-12T22:29:49.791Z,64.62
2019-05-12T22:32:25.363Z,64.49
2019-05-12T22:34:54.334Z,64.31
2019-05-12T22:37:24.008Z,64.70
2019-05-12T22:39:54.172Z,64.97
2019-05-12T22:42:25.407Z,64.77
2019-05-12T22:45:01.457Z,65.13
2019-05-12T22:47:27.597Z,65.65
2019-05-12T22:49:57.724Z,65.86
2019-05-12T22:52:27.893Z,65.59
2019-05-12T22:54:58.013Z,65.72
2019-05-12T22:57:29.281Z,66.33
2019-05-12T23:00:00.105Z,66.65
2019-05-12T23:02:30.265Z,66.42
2019-05-12T23:05:00.389Z,66.36
2019-05-12T23:07:30.609Z,66.48
2019-05-12T23:10:07.042Z,66.56
2019-05-12T23:12:34.352Z,67.34
2019-05-12T23:15:07.157Z,67.29
2019-05-12T23:17:38.964Z,66.97
2019-05-12T23:20:09.220Z,67.17
2019-05-12T23:22:39.420Z,67.90
2019-05-12T23:25:11.316Z,68.00
2019-05-12T23:27:44.060Z,67.70
2019-05-12T23:30:15.877Z,67.88
2019-05-12T23:32:51.494Z,68.31
2019-05-12T23:35:17.811Z,68.11
2019-05-12T23:37:49.052Z,68.12
2019-05-12T23:40:19.147Z,68.54
2019-05-12T23:42:49.334Z,68.62
2019-05-12T23:45:19.462Z,68.84
2019-05-12T23:47:49.634Z,69.14
2019-05-12T23:50:19.716Z,69.30
2019-05-12T23:52:49.910Z,69.46
2019-05-12T23:55:20.078Z,69.72
2019-05-12T23:57:50.234Z,69.58
